Time;durP1;ratioP1;P1;durP2;ratioP2;P2;SDS_P1;SDS_P2;PMS_P1;PMS_P2;Temp;Humidity;BMP_temperature;BMP_pressure;BME280_temperature;BME280_humidity;BME280_pressure;Samples;Min_cycle;Max_cycle;Signal;HPM_P1;HPM_P2
2023/11/18 00:02:19;;;;;;;9.50;6.00;;;;;;;2.92;100.00;97521.84;5101438;27;20509;-74
2023/11/18 00:04:44;;;;;;;9.27;6.28;;;;;;;2.96;100.00;97516.66;5093934;27;20074;-74
2023/11/18 00:07:10;;;;;;;8.20;5.75;;;;;;;2.99;100.00;97521.47;5087178;28;20039;-73
2023/11/18 00:09:36;;;;;;;7.00;5.53;;;;;;;2.97;100.00;97515.53;5091505;28;20375;-73
2023/11/18 00:12:03;;;;;;;6.93;5.55;;;;;;;2.91;100.00;97522.16;5095266;28;20077;-72
2023/11/18 00:14:29;;;;;;;9.13;6.22;;;;;;;2.90;100.00;97517.81;5081153;28;20078;-73
2023/11/18 00:16:55;;;;;;;9.77;6.45;;;;;;;2.80;100.00;97524.22;5092708;28;20156;-72
2023/11/18 00:19:20;;;;;;;7.90;6.40;;;;;;;2.77;100.00;97520.19;5078992;28;20047;-73
2023/11/18 00:21:45;;;;;;;7.63;6.00;;;;;;;2.72;100.00;97520.31;5081031;28;20040;-72
2023/11/18 00:24:11;;;;;;;10.18;7.07;;;;;;;2.57;100.00;97521.31;5066366;28;20051;-74
2023/11/18 00:26:36;;;;;;;8.60;6.70;;;;;;;2.48;100.00;97517.69;5098228;28;20044;-72
2023/11/18 00:29:02;;;;;;;10.00;6.65;;;;;;;2.44;100.00;97522.88;5090020;28;20055;-71
2023/11/18 00:31:27;;;;;;;9.73;6.38;;;;;;;2.46;100.00;97522.59;5078306;28;20074;-75
2023/11/18 00:33:53;;;;;;;10.00;7.00;;;;;;;2.41;100.00;97522.66;5087135;28;20042;-74
2023/11/18 00:36:18;;;;;;;11.30;7.10;;;;;;;2.43;100.00;97523.16;5113253;27;20500;-73
2023/11/18 00:38:43;;;;;;;10.85;7.43;;;;;;;2.51;100.00;97516.31;5086980;28;20048;-75
2023/11/18 00:41:09;;;;;;;12.00;7.50;;;;;;;2.68;100.00;97511.16;5101569;27;20099;-74
2023/11/18 00:43:34;;;;;;;12.38;8.23;;;;;;;2.81;100.00;97512.28;5088427;27;20039;-74
2023/11/18 00:46:01;;;;;;;11.43;8.77;;;;;;;2.86;100.00;97502.22;5107356;27;20047;-74
2023/11/18 00:48:27;;;;;;;15.40;9.90;;;;;;;2.79;100.00;97503.66;5100238;27;20043;-75
2023/11/18 00:50:52;;;;;;;18.02;9.80;;;;;;;2.64;100.00;97516.34;5128036;27;20040;-72
2023/11/18 00:53:18;;;;;;;14.55;10.00;;;;;;;2.56;100.00;97516.22;5117694;28;20050;-72
2023/11/18 00:55:44;;;;;;;13.32;8.90;;;;;;;2.59;100.00;97523.72;5110299;28;20136;-73
2023/11/18 00:58:09;;;;;;;14.30;10.13;;;;;;;2.68;100.00;97540.91;5090764;28;20040;-74
2023/11/18 01:00:36;;;;;;;16.40;10.63;;;;;;;2.72;100.00;97531.13;5085332;28;20063;-74
2023/11/18 01:03:02;;;;;;;14.65;8.45;;;;;;;2.77;100.00;97536.41;5094398;28;20043;-75
2023/11/18 01:05:27;;;;;;;13.05;8.50;;;;;;;2.94;100.00;97543.22;5079062;28;20044;-74
2023/11/18 01:07:53;;;;;;;11.32;8.55;;;;;;;2.97;100.00;97539.91;5102869;27;20486;-74
2023/11/18 01:10:19;;;;;;;13.15;8.30;;;;;;;3.13;100.00;97543.16;5094806;28;20470;-74
2023/11/18 01:12:45;;;;;;;13.88;9.38;;;;;;;3.27;100.00;97535.88;5106282;27;20046;-73
2023/11/18 01:15:10;;;;;;;15.68;10.25;;;;;;;3.25;100.00;97532.66;5097665;27;20035;-71
2023/11/18 01:17:36;;;;;;;18.17;10.95;;;;;;;3.17;100.00;97533.31;5097819;27;20062;-73
2023/11/18 01:20:07;;;;;;;14.98;9.32;;;;;;;3.22;100.00;97534.06;5094698;27;20036;-71
2023/11/18 01:22:34;;;;;;;13.68;8.98;;;;;;;3.38;100.00;97531.06;5094886;28;20047;-74
2023/11/18 01:25:00;;;;;;;11.18;8.00;;;;;;;3.50;100.00;97533.28;5084019;28;20677;-71
2023/11/18 01:27:26;;;;;;;11.40;8.70;;;;;;;3.55;100.00;97530.50;5093444;28;20047;-74
2023/11/18 01:29:51;;;;;;;17.83;9.00;;;;;;;3.52;100.00;97518.34;5093065;28;20081;-73
2023/11/18 01:32:18;;;;;;;12.20;8.60;;;;;;;3.51;100.00;97527.59;5105011;27;20039;-72
2023/11/18 01:34:44;;;;;;;12.02;9.20;;;;;;;3.43;100.00;97529.06;5086499;28;20504;-72
2023/11/18 01:37:10;;;;;;;12.25;8.45;;;;;;;3.39;100.00;97525.34;5113601;28;20043;-71
2023/11/18 01:39:36;;;;;;;10.48;8.13;;;;;;;3.37;100.00;97532.97;5132306;27;20040;-72
2023/11/18 01:42:04;;;;;;;10.13;7.07;;;;;;;3.39;100.00;97530.78;5101371;28;20040;-72
2023/11/18 01:44:30;;;;;;;10.75;7.35;;;;;;;3.40;100.00;97531.56;5126655;27;20039;-70
2023/11/18 01:46:57;;;;;;;10.85;7.70;;;;;;;3.36;100.00;97544.91;5092493;28;20508;-74
2023/11/18 01:49:27;;;;;;;10.77;7.80;;;;;;;3.28;100.00;97545.59;5083879;28;20135;-74
2023/11/18 01:51:52;;;;;;;;;;;;;;;3.33;100.00;97547.41;5088291;28;20494;-73
2023/11/18 01:54:19;;;;;;;10.85;7.07;;;;;;;3.40;100.00;97553.22;5083610;28;19916;-74
2023/11/18 01:56:47;;;;;;;10.60;7.53;;;;;;;3.36;100.00;97557.66;5088170;28;20506;-74
2023/11/18 01:59:19;;;;;;;11.30;7.90;;;;;;;3.43;100.00;97564.25;5081176;28;20069;-74
2023/11/18 02:01:49;;;;;;;9.55;7.47;;;;;;;3.43;100.00;97558.84;5079886;28;20047;-74
2023/11/18 02:04:16;;;;;;;11.88;8.15;;;;;;;3.50;100.00;97563.09;5083465;28;20044;-72
2023/11/18 02:06:45;;;;;;;13.10;8.73;;;;;;;3.58;100.00;97562.38;5080112;28;20546;-72
2023/11/18 02:09:12;;;;;;;12.25;8.48;;;;;;;3.45;100.00;97558.56;5083582;28;20109;-72
2023/11/18 02:11:45;;;;;;;12.40;8.95;;;;;;;3.33;100.00;97563.66;5104807;28;20036;-72
2023/11/18 02:14:16;;;;;;;12.52;7.85;;;;;;;3.34;100.00;97552.53;5084254;28;20148;-74
2023/11/18 02:16:44;;;;;;;10.73;7.82;;;;;;;3.53;100.00;97548.94;5085811;28;20097;-75
2023/11/18 02:19:19;;;;;;;10.55;7.50;;;;;;;3.61;100.00;97548.25;5076004;28;20155;-73
2023/11/18 02:21:46;;;;;;;14.82;9.57;;;;;;;3.56;100.00;97553.75;5083155;28;20576;-73
2023/11/18 02:24:24;;;;;;;12.55;8.52;;;;;;;3.38;100.00;97542.69;5078074;28;20431;-72
2023/11/18 02:26:50;;;;;;;9.52;7.13;;;;;;;3.24;100.00;97539.16;5109302;27;20122;-71
2023/11/18 02:29:15;;;;;;;10.93;7.05;;;;;;;3.13;100.00;97535.03;5085012;27;20135;-74
2023/11/18 02:31:42;;;;;;;11.75;8.10;;;;;;;3.00;100.00;97536.59;5092120;28;20470;-74
2023/11/18 02:34:17;;;;;;;12.55;7.55;;;;;;;2.93;100.00;97530.78;5086641;28;20130;-73
2023/11/18 02:36:47;;;;;;;12.63;8.77;;;;;;;2.85;100.00;97527.66;5086837;28;20111;-73
2023/11/18 02:39:22;;;;;;;13.32;9.57;;;;;;;2.79;100.00;97528.00;5099185;27;20036;-73
2023/11/18 02:41:52;;;;;;;10.93;7.93;;;;;;;2.80;100.00;97530.44;5083386;28;20561;-73
2023/11/18 02:44:20;;;;;;;12.85;8.18;;;;;;;2.83;100.00;97532.56;5088324;28;20101;-72
2023/11/18 02:46:45;;;;;;;15.15;9.07;;;;;;;2.77;100.00;97530.22;5073111;28;20576;-74
2023/11/18 02:49:11;;;;;;;11.52;7.95;;;;;;;2.80;100.00;97527.72;5100239;27;20149;-74
2023/11/18 02:51:39;;;;;;;12.73;8.35;;;;;;;2.81;100.00;97528.53;5095333;27;20051;-74
2023/11/18 02:54:10;;;;;;;12.93;8.85;;;;;;;2.70;100.00;97529.78;5085008;28;20160;-72
2023/11/18 02:56:36;;;;;;;14.77;10.05;;;;;;;2.58;100.00;97533.75;5082007;28;20059;-73
2023/11/18 02:59:05;;;;;;;16.58;10.32;;;;;;;2.48;100.00;97528.50;5073186;28;20040;-73
2023/11/18 03:01:30;;;;;;;14.07;9.27;;;;;;;2.34;100.00;97531.16;5105728;27;20128;-73
2023/11/18 03:03:56;;;;;;;14.25;9.32;;;;;;;2.34;100.00;97528.44;5089326;28;20040;-73
2023/11/18 03:06:21;;;;;;;13.88;9.10;;;;;;;2.39;100.00;97541.88;5110237;27;20771;-73
2023/11/18 03:08:46;;;;;;;13.63;8.10;;;;;;;2.38;100.00;97537.56;5102455;28;20036;-73
2023/11/18 03:11:12;;;;;;;15.50;9.07;;;;;;;2.24;100.00;97536.69;5095439;28;20040;-72
2023/11/18 03:13:37;;;;;;;13.27;8.77;;;;;;;2.10;100.00;97542.00;5112031;28;20435;-73
2023/11/18 03:16:07;;;;;;;10.45;7.60;;;;;;;2.01;100.00;97538.34;5089071;28;20044;-72
2023/11/18 03:18:32;;;;;;;14.15;9.38;;;;;;;1.96;100.00;97530.31;5077466;28;20051;-74
2023/11/18 03:21:00;;;;;;;27.92;8.90;;;;;;;1.85;100.00;97535.03;5085881;28;20040;-73
2023/11/18 03:23:25;;;;;;;170.55;12.82;;;;;;;1.72;100.00;97541.94;5078032;28;20052;-74
2023/11/18 03:25:51;;;;;;;316.45;19.15;;;;;;;1.67;100.00;97539.31;5099458;27;20035;-74
2023/11/18 03:28:16;;;;;;;34.35;13.50;;;;;;;1.63;100.00;97540.97;5093203;27;20135;-73
2023/11/18 03:30:42;;;;;;;35.58;10.57;;;;;;;1.53;100.00;97537.31;5082949;28;20086;-73
2023/11/18 03:33:10;;;;;;;15.95;8.73;;;;;;;1.47;100.00;97532.25;5077352;28;20660;-72
2023/11/18 03:35:37;;;;;;;249.63;14.32;;;;;;;1.49;100.00;97524.66;5078632;28;20054;-72
2023/11/18 03:38:03;;;;;;;33.22;10.60;;;;;;;1.48;100.00;97525.75;5081449;28;20068;-71
2023/11/18 03:40:29;;;;;;;21.48;9.82;;;;;;;1.41;100.00;97531.50;5082274;27;20115;-73
2023/11/18 03:42:54;;;;;;;17.00;11.10;;;;;;;1.31;100.00;97532.41;5103005;27;20493;-73
2023/11/18 03:45:20;;;;;;;25.48;12.02;;;;;;;1.36;100.00;97539.63;5101987;27;20039;-73
2023/11/18 03:47:47;;;;;;;20.45;10.52;;;;;;;1.30;100.00;97530.00;5078995;27;20405;-72
2023/11/18 03:50:13;;;;;;;19.80;11.95;;;;;;;1.29;100.00;97533.78;5109003;27;20043;-73
2023/11/18 03:52:38;;;;;;;29.05;13.10;;;;;;;1.28;100.00;97526.78;5110546;27;23515;-73
2023/11/18 03:55:04;;;;;;;90.20;12.35;;;;;;;1.13;100.00;97535.81;5105773;27;20074;-72
2023/11/18 03:57:30;;;;;;;74.85;12.18;;;;;;;0.83;100.00;97535.03;5108667;27;20719;-73
2023/11/18 03:59:55;;;;;;;121.68;11.65;;;;;;;0.76;100.00;97534.53;5096444;28;20055;-73
2023/11/18 04:02:20;;;;;;;91.13;12.48;;;;;;;0.72;100.00;97538.88;5093585;27;20051;-73
2023/11/18 04:04:46;;;;;;;92.30;14.68;;;;;;;0.67;100.00;97545.13;5107164;27;20050;-72
2023/11/18 04:07:11;;;;;;;18.20;11.80;;;;;;;0.60;100.00;97543.84;5104381;27;20095;-71
2023/11/18 04:09:36;;;;;;;20.42;12.38;;;;;;;0.54;100.00;97538.47;5122037;27;20047;-72
2023/11/18 04:12:03;;;;;;;59.47;14.63;;;;;;;0.67;100.00;97544.31;5120281;27;20073;-71
2023/11/18 04:14:28;;;;;;;142.20;18.05;;;;;;;0.66;100.00;97545.41;5110576;27;20066;-72
2023/11/18 04:16:55;;;;;;;81.10;14.90;;;;;;;0.51;100.00;97547.13;5116036;27;20067;-74
2023/11/18 04:19:20;;;;;;;92.40;14.00;;;;;;;0.36;100.00;97545.34;5113228;27;20036;-74
2023/11/18 04:21:49;;;;;;;23.40;13.13;;;;;;;0.34;100.00;97552.91;5113974;27;20150;-72
2023/11/18 04:24:15;;;;;;;20.58;11.98;;;;;;;0.42;100.00;97550.69;5123180;27;20188;-73
2023/11/18 04:26:40;;;;;;;18.45;11.43;;;;;;;0.48;100.00;97560.34;5121186;27;20540;-71
2023/11/18 04:29:06;;;;;;;22.27;12.13;;;;;;;0.51;100.00;97555.22;5119086;27;20042;-75
2023/11/18 04:31:31;;;;;;;24.50;13.27;;;;;;;0.47;100.00;97545.25;5122455;27;20229;-72
2023/11/18 04:33:57;;;;;;;23.13;13.95;;;;;;;0.44;100.00;97552.03;5114866;27;20031;-73
2023/11/18 04:36:22;;;;;;;27.88;15.13;;;;;;;0.41;100.00;97549.06;5116470;27;20047;-73
2023/11/18 04:38:48;;;;;;;25.00;14.20;;;;;;;0.47;100.00;97547.94;5122264;27;20035;-73
2023/11/18 04:41:14;;;;;;;22.00;12.80;;;;;;;0.69;100.00;97553.72;5098576;27;20051;-73
2023/11/18 04:43:41;;;;;;;20.00;12.88;;;;;;;0.82;100.00;97551.47;5121852;27;20619;-71
2023/11/18 04:46:07;;;;;;;19.63;12.38;;;;;;;0.90;100.00;97557.06;5116825;27;20039;-71
2023/11/18 04:48:33;;;;;;;19.67;13.10;;;;;;;0.99;100.00;97549.19;5121233;27;20134;-72
2023/11/18 04:50:59;;;;;;;19.45;12.93;;;;;;;0.85;100.00;97543.63;5102503;27;20047;-71
2023/11/18 04:53:25;;;;;;;36.97;13.93;;;;;;;0.65;100.00;97550.00;5106826;27;20071;-71
2023/11/18 04:55:52;;;;;;;31.45;14.60;;;;;;;0.49;100.00;97548.50;5113095;27;20141;-73
2023/11/18 04:58:18;;;;;;;22.33;13.18;;;;;;;0.43;100.00;97553.09;5116992;27;20578;-72
2023/11/18 05:00:44;;;;;;;24.95;13.45;;;;;;;0.44;100.00;97556.63;5121209;27;20037;-72
2023/11/18 05:03:09;;;;;;;19.70;12.75;;;;;;;0.42;100.00;97553.41;5114288;27;20035;-74
2023/11/18 05:05:39;;;;;;;22.23;13.10;;;;;;;0.41;100.00;97549.88;5113043;27;20098;-71
2023/11/18 05:08:08;;;;;;;19.17;11.48;;;;;;;0.34;100.00;97550.22;5116582;27;20035;-69
2023/11/18 05:10:34;;;;;;;20.63;12.13;;;;;;;0.37;100.00;97546.13;5120828;27;20138;-70
2023/11/18 05:13:00;;;;;;;20.08;11.52;;;;;;;0.47;100.00;97551.47;5112729;27;20281;-73
2023/11/18 05:15:26;;;;;;;18.65;11.77;;;;;;;0.50;100.00;97550.88;5098120;27;20044;-72
2023/11/18 05:17:53;;;;;;;23.38;12.68;;;;;;;0.42;100.00;97556.88;5120835;27;20032;-71
2023/11/18 05:20:18;;;;;;;97.03;22.25;;;;;;;0.21;100.00;97552.72;5098672;27;20088;-72
2023/11/18 05:22:44;;;;;;;32.10;15.95;;;;;;;0.15;100.00;97544.66;5121558;27;20439;-74
2023/11/18 05:25:12;;;;;;;28.33;16.42;;;;;;;0.22;100.00;97546.22;5120484;27;20039;-72
2023/11/18 05:27:41;;;;;;;27.67;15.00;;;;;;;0.22;100.00;97547.03;5109402;27;20063;-71
2023/11/18 05:30:09;;;;;;;18.30;11.90;;;;;;;0.22;100.00;97549.75;5126253;27;20071;-73
2023/11/18 05:32:35;;;;;;;19.98;12.20;;;;;;;0.20;100.00;97538.44;5097781;27;20088;-71
2023/11/18 05:35:01;;;;;;;19.80;11.23;;;;;;;0.30;100.00;97543.75;5115938;27;20505;-71
2023/11/18 05:37:34;;;;;;;16.95;10.80;;;;;;;0.37;100.00;97543.44;5116073;27;20501;-72
2023/11/18 05:40:05;;;;;;;17.02;10.30;;;;;;;0.44;100.00;97540.44;5121056;27;20130;-73
2023/11/18 05:42:31;;;;;;;17.13;10.82;;;;;;;0.52;100.00;97545.22;5120560;27;20069;-73
2023/11/18 05:44:59;;;;;;;21.98;11.98;;;;;;;0.48;100.00;97539.59;5120017;27;20828;-73
2023/11/18 05:47:28;;;;;;;18.73;11.90;;;;;;;0.44;100.00;97530.47;5116907;27;20043;-72
2023/11/18 05:49:54;;;;;;;17.52;11.07;;;;;;;0.46;100.00;97539.06;5121810;27;20039;-72
2023/11/18 05:52:20;;;;;;;18.20;11.23;;;;;;;0.44;100.00;97532.34;5113229;27;20521;-72
2023/11/18 05:54:47;;;;;;;16.05;10.43;;;;;;;0.43;100.00;97531.53;5098954;27;20145;-72
2023/11/18 05:57:15;;;;;;;16.30;9.65;;;;;;;0.45;100.00;97545.56;5109235;27;20054;-74
2023/11/18 05:59:40;;;;;;;14.52;8.77;;;;;;;0.44;100.00;97533.16;5117997;27;20481;-73
2023/11/18 06:02:05;;;;;;;16.00;8.05;;;;;;;0.48;100.00;97538.78;5116860;27;20062;-74
2023/11/18 06:04:31;;;;;;;13.60;8.75;;;;;;;0.59;100.00;97540.31;5106720;28;20119;-72
2023/11/18 06:06:56;;;;;;;13.00;8.13;;;;;;;0.71;100.00;97551.56;5120915;28;20399;-71
2023/11/18 06:09:25;;;;;;;12.27;8.05;;;;;;;0.83;100.00;97545.81;5106288;28;20047;-75
2023/11/18 06:11:51;;;;;;;14.25;9.32;;;;;;;0.89;100.00;97551.97;5116822;28;20035;-71
2023/11/18 06:14:16;;;;;;;14.43;7.88;;;;;;;0.34;100.00;97538.59;5111848;28;20023;-74
2023/11/18 06:16:42;;;;;;;110.38;11.80;;;;;;;-0.08;100.00;97535.34;5113843;28;20047;-73
2023/11/18 06:19:08;;;;;;;19.67;11.27;;;;;;;-0.13;100.00;97543.44;5108165;28;20039;-74
2023/11/18 06:21:33;;;;;;;20.00;12.05;;;;;;;0.01;100.00;97530.19;5112740;28;20046;-73
2023/11/18 06:24:00;;;;;;;23.00;14.50;;;;;;;0.19;100.00;97537.63;5121480;28;20217;-74
2023/11/18 06:26:26;;;;;;;23.67;14.57;;;;;;;0.40;100.00;97536.69;5122507;28;20047;-74
2023/11/18 06:28:53;;;;;;;29.17;15.20;;;;;;;0.48;100.00;97536.88;5128729;28;20039;-74
2023/11/18 06:31:23;;;;;;;23.67;14.57;;;;;;;0.55;100.00;97548.16;5117921;28;20043;-73
2023/11/18 06:33:49;;;;;;;25.05;14.25;;;;;;;0.60;100.00;97549.22;5120647;28;20042;-74
2023/11/18 06:36:14;;;;;;;21.48;13.57;;;;;;;0.72;100.00;97545.09;5102182;28;20032;-76
2023/11/18 06:38:40;;;;;;;30.35;17.52;;;;;;;0.78;100.00;97543.16;5077261;28;20551;-75
2023/11/18 06:41:11;;;;;;;28.23;16.15;;;;;;;0.88;100.00;97548.47;5104590;28;20043;-73
2023/11/18 06:43:59;;;;;;;27.98;15.38;;;;;;;1.04;100.00;97551.81;5106597;28;20144;-73
2023/11/18 06:46:33;;;;;;;26.27;14.77;;;;;;;1.05;100.00;97539.16;5089287;28;20046;-73
2023/11/18 06:49:03;;;;;;;24.88;14.35;;;;;;;1.02;100.00;97540.50;5080221;28;20537;-74
2023/11/18 06:51:29;;;;;;;25.92;16.20;;;;;;;0.87;100.00;97548.75;5103841;28;20176;-75
2023/11/18 06:53:56;;;;;;;23.90;14.98;;;;;;;0.88;100.00;97555.72;5122937;28;20552;-75
2023/11/18 06:56:21;;;;;;;20.10;12.63;;;;;;;0.93;100.00;97548.41;5108881;28;20809;-74
2023/11/18 06:58:47;;;;;;;19.88;12.23;;;;;;;1.02;100.00;97548.59;5117923;28;20043;-75
2023/11/18 07:01:14;;;;;;;18.33;11.85;;;;;;;1.28;100.00;97557.28;5131050;28;20063;-75
2023/11/18 07:03:48;;;;;;;18.23;11.43;;;;;;;1.46;100.00;97563.00;5123715;28;20020;-74
2023/11/18 07:06:21;;;;;;;15.70;10.63;;;;;;;1.56;100.00;97565.63;5128943;28;20103;-74
2023/11/18 07:08:51;;;;;;;17.83;10.68;;;;;;;1.75;100.00;97568.38;5116613;28;20032;-76
2023/11/18 07:11:17;;;;;;;24.73;14.63;;;;;;;1.84;100.00;97569.34;5111494;27;20362;-75
2023/11/18 07:13:43;;;;;;;24.52;15.93;;;;;;;1.79;100.00;97571.31;5124781;27;20039;-74
2023/11/18 07:16:09;;;;;;;22.38;14.43;;;;;;;1.83;100.00;97564.25;5112768;27;20065;-75
2023/11/18 07:18:38;;;;;;;23.27;14.07;;;;;;;2.09;100.00;97567.44;5122612;27;20394;-73
2023/11/18 07:21:05;;;;;;;21.58;13.45;;;;;;;2.72;100.00;97560.06;5115002;27;20035;-72
2023/11/18 07:23:31;;;;;;;19.60;13.90;;;;;;;3.00;100.00;97552.84;5090053;27;20040;-72
2023/11/18 07:25:57;;;;;;;26.38;19.38;;;;;;;3.38;100.00;97552.72;5124655;27;20078;-74
2023/11/18 07:28:23;;;;;;;19.17;13.27;;;;;;;3.62;100.00;97558.78;5104557;27;20061;-72
2023/11/18 07:30:48;;;;;;;21.58;13.38;;;;;;;4.43;100.00;97545.72;5126635;27;20139;-72
2023/11/18 07:33:14;;;;;;;16.38;10.63;;;;;;;4.83;100.00;97554.84;5117254;27;20042;-73
2023/11/18 07:35:40;;;;;;;13.48;10.25;;;;;;;5.00;100.00;97542.50;5114817;27;20040;-74
2023/11/18 07:38:07;;;;;;;15.10;9.18;;;;;;;4.75;100.00;97553.69;5097859;27;20102;-73
2023/11/18 07:40:33;;;;;;;12.98;9.38;;;;;;;5.03;100.00;97553.56;5114076;27;20040;-74
2023/11/18 07:43:01;;;;;;;11.48;9.55;;;;;;;4.98;100.00;97556.41;5125751;27;20059;-74
2023/11/18 07:45:28;;;;;;;12.23;8.68;;;;;;;5.22;100.00;97547.94;5129621;27;20050;-73
2023/11/18 07:47:55;;;;;;;10.95;8.02;;;;;;;5.15;100.00;97550.28;5109968;27;20054;-73
2023/11/18 07:50:21;;;;;;;11.48;8.43;;;;;;;5.16;100.00;97557.31;5107160;27;20127;-73
2023/11/18 07:52:48;;;;;;;14.80;10.50;;;;;;;4.72;100.00;97556.22;5086710;27;20733;-74
2023/11/18 07:55:14;;;;;;;11.85;8.68;;;;;;;4.64;100.00;97548.78;5088316;28;20127;-73
2023/11/18 07:57:40;;;;;;;11.70;8.85;;;;;;;4.51;100.00;97553.97;5085343;27;20763;-73
2023/11/18 08:00:09;;;;;;;12.63;7.65;;;;;;;4.41;100.00;97546.03;5093146;27;20043;-73
2023/11/18 08:02:36;;;;;;;10.63;8.57;;;;;;;3.95;100.00;97538.91;5120345;27;20043;-73
2023/11/18 08:05:03;;;;;;;14.65;10.18;;;;;;;3.79;100.00;97549.25;5089838;27;20498;-74
2023/11/18 08:07:29;;;;;;;16.50;10.82;;;;;;;3.68;100.00;97551.34;5096371;28;20448;-73
2023/11/18 08:09:54;;;;;;;19.60;14.32;;;;;;;3.60;100.00;97557.47;5108889;27;20036;-73
2023/11/18 08:12:20;;;;;;;25.15;15.73;;;;;;;3.85;100.00;97553.44;5110802;27;20119;-73
2023/11/18 08:14:47;;;;;;;19.33;13.18;;;;;;;3.61;100.00;97556.38;5085653;27;20283;-73
2023/11/18 08:17:13;;;;;;;20.73;11.85;;;;;;;3.70;100.00;97556.47;5106127;27;20039;-74
2023/11/18 08:19:38;;;;;;;16.15;11.68;;;;;;;3.74;100.00;97543.94;5123440;27;20027;-75
2023/11/18 08:22:05;;;;;;;17.33;11.18;;;;;;;3.81;100.00;97545.13;5103442;27;20056;-75
2023/11/18 08:24:33;;;;;;;16.35;11.32;;;;;;;3.89;100.00;97545.53;5100350;27;20068;-73
2023/11/18 08:26:59;;;;;;;19.63;14.52;;;;;;;4.51;100.00;97534.97;5102305;27;20039;-74
2023/11/18 08:29:28;;;;;;;18.55;11.82;;;;;;;4.44;100.00;97537.28;5119337;27;20320;-71
2023/11/18 08:31:53;;;;;;;14.83;10.10;;;;;;;4.66;100.00;97541.94;5093309;27;20512;-73
2023/11/18 08:34:18;;;;;;;15.63;10.15;;;;;;;4.18;100.00;97547.91;5094503;28;20036;-73
2023/11/18 08:36:44;;;;;;;17.08;11.02;;;;;;;4.40;100.00;97549.88;5090980;28;20487;-73
2023/11/18 08:39:10;;;;;;;14.60;10.48;;;;;;;4.79;100.00;97551.16;5089328;27;20049;-73
2023/11/18 08:41:36;;;;;;;14.48;10.80;;;;;;;4.45;100.00;97543.53;5106805;27;20742;-73
2023/11/18 08:44:02;;;;;;;14.07;8.93;;;;;;;4.53;100.00;97553.66;5114107;27;20130;-72
2023/11/18 08:46:27;;;;;;;16.98;13.43;;;;;;;5.00;100.00;97556.09;5090031;27;20076;-72
2023/11/18 08:48:55;;;;;;;13.30;9.00;;;;;;;5.14;100.00;97556.81;5105865;27;20070;-74
2023/11/18 08:51:21;;;;;;;16.60;9.43;;;;;;;4.97;100.00;97549.38;5089132;27;20112;-72
2023/11/18 08:53:47;;;;;;;12.55;8.75;;;;;;;5.05;100.00;97537.75;5092093;27;20494;-73
2023/11/18 08:56:15;;;;;;;10.73;8.30;;;;;;;4.83;100.00;97533.16;5103743;27;20050;-72
2023/11/18 08:58:49;;;;;;;14.57;10.43;;;;;;;5.04;100.00;97521.78;5111663;27;20553;-72
2023/11/18 09:01:15;;;;;;;16.35;11.95;;;;;;;5.00;100.00;97534.38;5100350;27;20074;-72
2023/11/18 09:03:48;;;;;;;17.13;11.20;;;;;;;5.11;100.00;97533.81;5100906;27;20066;-73
2023/11/18 09:06:17;;;;;;;17.45;11.25;;;;;;;4.91;100.00;97545.16;5090981;27;20134;-74
2023/11/18 09:08:45;;;;;;;16.50;12.02;;;;;;;5.10;100.00;97539.56;5065844;28;20077;-73
2023/11/18 09:11:22;;;;;;;16.75;12.52;;;;;;;5.11;100.00;97531.09;5084830;28;20051;-73
2023/11/18 09:13:53;;;;;;;13.55;10.10;;;;;;;5.44;100.00;97533.50;5096153;27;20265;-73
2023/11/18 09:16:20;;;;;;;13.73;9.45;;;;;;;5.70;100.00;97541.75;5089153;28;20099;-73
2023/11/18 09:18:46;;;;;;;12.75;9.82;;;;;;;5.47;100.00;97541.00;5100254;28;20057;-71
2023/11/18 09:21:14;;;;;;;11.13;7.75;;;;;;;5.65;100.00;97541.09;5096111;28;20035;-72
2023/11/18 09:23:41;;;;;;;12.38;9.65;;;;;;;5.83;100.00;97539.25;5073580;28;20044;-71
2023/11/18 09:26:08;;;;;;;9.77;7.10;;;;;;;5.25;100.00;97530.22;5091014;28;20506;-71
2023/11/18 09:28:34;;;;;;;9.02;7.03;;;;;;;5.38;100.00;97523.06;5080293;27;20100;-72
2023/11/18 09:31:04;;;;;;;10.23;8.57;;;;;;;5.42;100.00;97518.63;5110844;27;20039;-72
2023/11/18 09:33:34;;;;;;;;;;;;;;;5.47;100.00;97515.75;5120628;27;20100;-71
2023/11/18 09:36:07;;;;;;;11.93;8.13;;;;;;;5.22;100.00;97517.25;5104324;27;19912;-74
2023/11/18 09:38:36;;;;;;;12.68;9.70;;;;;;;5.35;100.00;97516.38;5120096;27;20050;-72
2023/11/18 09:41:03;;;;;;;;;;;;;;;5.34;100.00;97522.91;5120450;27;20027;-74
2023/11/18 09:43:41;;;;;;;12.95;8.45;;;;;;;5.61;100.00;97526.53;5116575;27;19911;-72
2023/11/18 09:46:12;;;;;;;12.10;7.88;;;;;;;5.69;100.00;97526.56;5102664;27;20050;-70
2023/11/18 09:48:45;;;;;;;11.90;7.97;;;;;;;5.70;100.00;97530.09;5125425;27;20036;-70
2023/11/18 09:51:16;;;;;;;20.25;12.38;;;;;;;5.19;100.00;97529.53;5108104;28;20059;-73
2023/11/18 09:53:46;;;;;;;13.10;9.65;;;;;;;5.30;100.00;97520.00;5100495;28;20035;-70
2023/11/18 09:56:38;;;;;;;14.07;8.90;;;;;;;4.96;100.00;97515.97;5116100;27;20043;-73
2023/11/18 09:59:30;;;;;;;11.38;7.95;;;;;;;4.79;100.00;97516.69;5099633;27;20031;-74
2023/11/18 10:01:59;;;;;;;12.30;8.88;;;;;;;5.30;100.00;97514.56;5123839;27;20418;-71
2023/11/18 10:04:28;;;;;;;10.70;7.97;;;;;;;5.49;100.00;97516.25;5125367;27;20315;-72
2023/11/18 10:06:54;;;;;;;14.68;11.57;;;;;;;5.58;100.00;97514.38;5116710;28;20489;-71
2023/11/18 10:09:28;;;;;;;11.32;7.85;;;;;;;5.40;100.00;97527.06;5107090;28;20482;-71
2023/11/18 10:12:05;;;;;;;12.85;8.88;;;;;;;5.51;100.00;97520.28;5103803;28;20039;-72
2023/11/18 10:14:34;;;;;;;13.55;10.27;;;;;;;5.33;100.00;97502.28;5106404;28;20540;-72
2023/11/18 10:17:06;;;;;;;12.30;9.00;;;;;;;5.11;100.00;97494.97;5082825;28;20031;-72
2023/11/18 10:19:52;;;;;;;11.75;8.00;;;;;;;5.40;100.00;97496.41;5106715;28;20043;-71
2023/11/18 10:22:26;;;;;;;14.73;7.78;;;;;;;5.03;100.00;97488.41;5123774;28;20034;-72
2023/11/18 10:24:54;;;;;;;11.48;7.60;;;;;;;5.32;100.00;97506.13;5115865;28;20040;-72
2023/11/18 10:27:29;;;;;;;10.80;7.55;;;;;;;5.40;100.00;97502.63;5096818;28;20544;-73
2023/11/18 10:30:02;;;;;;;10.55;7.68;;;;;;;5.63;100.00;97497.13;5106607;28;20046;-72
2023/11/18 10:32:27;;;;;;;12.32;7.00;;;;;;;5.38;100.00;97495.91;5097094;28;20044;-72
2023/11/18 10:34:57;;;;;;;10.73;7.55;;;;;;;5.44;100.00;97490.03;5100458;28;20040;-72
2023/11/18 10:37:23;;;;;;;10.43;7.28;;;;;;;5.59;100.00;97491.53;5102154;28;20037;-73
2023/11/18 10:39:51;;;;;;;8.88;6.95;;;;;;;5.85;100.00;97497.06;5095095;28;20362;-72
2023/11/18 10:42:20;;;;;;;9.27;7.07;;;;;;;6.37;100.00;97495.53;5075270;28;20055;-73
2023/11/18 10:44:57;;;;;;;8.40;6.65;;;;;;;5.93;100.00;97487.31;5115303;28;20051;-74
2023/11/18 10:47:25;;;;;;;8.73;6.80;;;;;;;5.65;100.00;97482.09;5112675;27;20271;-71
2023/11/18 10:49:51;;;;;;;10.05;6.47;;;;;;;5.79;100.00;97490.13;5074724;28;20065;-74
2023/11/18 10:52:19;;;;;;;8.43;5.90;;;;;;;5.52;100.00;97491.19;5100127;27;20032;-72
2023/11/18 10:54:55;;;;;;;7.72;6.07;;;;;;;5.62;100.00;97485.47;5111790;27;20043;-72
2023/11/18 10:57:22;;;;;;;9.35;5.68;;;;;;;5.60;100.00;97495.03;5100736;28;20031;-73
2023/11/18 11:00:03;;;;;;;7.57;5.72;;;;;;;5.32;100.00;97498.75;5084443;28;20643;-72
2023/11/18 11:02:39;;;;;;;8.18;5.70;;;;;;;5.73;100.00;97494.94;5092851;28;20071;-70
2023/11/18 11:05:06;;;;;;;8.85;6.47;;;;;;;5.63;100.00;97499.84;5062888;28;20035;-75
2023/11/18 11:07:37;;;;;;;7.30;5.85;;;;;;;5.70;100.00;97498.25;5107034;27;20067;-73
2023/11/18 11:10:04;;;;;;;7.72;5.70;;;;;;;5.78;100.00;97507.59;5094210;28;20040;-73
2023/11/18 11:12:38;;;;;;;8.13;5.97;;;;;;;6.00;100.00;97503.19;5105306;27;20047;-72
2023/11/18 11:15:21;;;;;;;7.63;5.18;;;;;;;6.06;100.00;97512.78;5099730;27;20066;-76
2023/11/18 11:17:55;;;;;;;9.30;5.90;;;;;;;6.09;100.00;97506.72;5102647;28;20043;-73
2023/11/18 11:20:31;;;;;;;8.73;5.80;;;;;;;6.48;100.00;97503.09;5101972;27;20028;-73
2023/11/18 11:23:32;;;;;;;7.57;5.05;;;;;;;6.66;100.00;97505.78;5074072;27;20038;-74
2023/11/18 11:26:13;;;;;;;6.72;5.30;;;;;;;6.81;100.00;97504.50;5088260;28;20080;-74